Time;durP1;ratioP1;P1;durP2;ratioP2;P2;SDS_P1;SDS_P2;PMS_P1;PMS_P2;Temp;Humidity;BMP_temperature;BMP_pressure;BME280_temperature;BME280_humidity;BME280_pressure;Samples;Min_cycle;Max_cycle;Signal;HPM_P1;HPM_P2
2022/04/10 00:01:56;;;;;;;22.45;6.05;;;;;;;8.79;61.71;100501.56;4805645;28;121760;-82
2022/04/10 00:04:23;;;;;;;34.67;11.68;;;;;;;8.80;61.37;100508.56;4819722;28;122909;-82
2022/04/10 00:06:48;;;;;;;36.80;9.82;;;;;;;8.80;62.13;100509.31;4823497;28;119480;-82
2022/04/10 00:09:14;;;;;;;26.05;5.70;;;;;;;8.70;61.96;100488.56;4822400;28;121931;-82
2022/04/10 00:11:40;;;;;;;20.50;4.53;;;;;;;8.80;61.76;100511.28;4821261;28;123225;-81
2022/04/10 00:14:06;;;;;;;30.75;5.65;;;;;;;8.80;61.41;100506.59;4841538;28;119894;-80
2022/04/10 00:16:35;;;;;;;24.25;5.00;;;;;;;8.77;61.37;100512.19;4836651;28;120634;-81
2022/04/10 00:19:04;;;;;;;25.08;4.85;;;;;;;8.80;61.45;100522.25;4835597;28;119394;-81
2022/04/10 00:21:31;;;;;;;21.95;5.45;;;;;;;8.74;61.98;100507.56;4836070;28;122464;-81
2022/04/10 00:24:00;;;;;;;23.38;4.60;;;;;;;8.79;62.33;100510.53;4828770;28;122808;-81
2022/04/10 00:26:26;;;;;;;22.23;5.35;;;;;;;8.72;61.87;100507.25;4817684;28;119837;-81
2022/04/10 00:28:51;;;;;;;23.60;6.05;;;;;;;8.76;62.16;100514.16;4836850;28;119851;-81
2022/04/10 00:31:23;;;;;;;24.92;5.95;;;;;;;8.67;62.42;100510.56;4805635;28;123183;-81
2022/04/10 00:33:48;;;;;;;25.40;5.07;;;;;;;8.71;62.16;100516.66;4803994;28;119504;-81
2022/04/10 00:36:14;;;;;;;25.67;5.38;;;;;;;8.61;62.16;100493.94;4809716;28;122513;-83
2022/04/10 00:38:40;;;;;;;25.60;5.40;;;;;;;8.73;61.58;100520.47;4821361;28;119707;-81
2022/04/10 00:41:06;;;;;;;24.75;5.75;;;;;;;8.70;62.11;100521.38;4838445;28;119669;-81
2022/04/10 00:43:34;;;;;;;27.77;5.25;;;;;;;8.66;62.31;100523.47;4820855;28;122898;-80
2022/04/10 00:46:00;;;;;;;19.75;4.60;;;;;;;8.73;61.97;100522.44;4820579;28;120727;-81
2022/04/10 00:48:26;;;;;;;24.50;5.95;;;;;;;8.66;61.82;100520.72;4826425;28;119460;-81
2022/04/10 00:53:38;;;;;;;25.08;4.72;;;;;;;8.67;62.16;100518.75;4817747;28;119810;-81
2022/04/10 00:56:04;;;;;;;25.05;5.00;;;;;;;8.68;61.76;100525.75;4834626;28;120948;-80
2022/04/10 00:58:30;;;;;;;19.38;3.88;;;;;;;8.69;61.57;100530.00;4806125;28;123085;-82
2022/04/10 01:00:56;;;;;;;23.48;4.60;;;;;;;8.68;61.43;100531.22;4817909;29;121783;-83
2022/04/10 01:03:24;;;;;;;23.50;4.38;;;;;;;8.65;61.40;100523.91;4832530;29;120127;-82
2022/04/10 01:05:52;;;;;;;19.67;4.22;;;;;;;8.65;61.34;100532.88;4836844;28;119969;-82
2022/04/10 01:08:19;;;;;;;26.95;5.18;;;;;;;8.63;61.48;100523.56;4802432;29;121802;-82
2022/04/10 01:10:44;;;;;;;17.65;3.80;;;;;;;8.66;60.79;100531.66;4804528;28;123415;-83
2022/04/10 01:13:10;;;;;;;20.08;4.53;;;;;;;8.65;60.70;100532.09;4820337;28;120617;-80
2022/04/10 01:15:38;;;;;;;21.55;4.30;;;;;;;8.60;61.25;100522.50;4805162;28;120732;-82
2022/04/10 01:18:06;;;;;;;19.17;3.88;;;;;;;8.65;61.22;100538.34;4817278;28;122495;-83
2022/04/10 01:20:32;;;;;;;19.40;5.00;;;;;;;8.64;61.19;100541.50;4825171;28;119500;-83
2022/04/10 01:23:03;;;;;;;24.13;4.60;;;;;;;8.56;61.32;100528.09;4824459;28;119722;-82
2022/04/10 01:25:29;;;;;;;19.45;4.10;;;;;;;8.58;61.23;100544.03;4820180;28;119731;-82
2022/04/10 01:27:56;;;;;;;20.88;3.92;;;;;;;8.54;61.27;100540.66;4817698;29;121558;-82
2022/04/10 01:30:24;;;;;;;24.80;4.82;;;;;;;8.53;60.59;100548.09;4825600;28;119768;-82
2022/04/10 01:32:50;;;;;;;22.02;4.13;;;;;;;8.56;61.05;100547.22;4825202;28;120094;-82
2022/04/10 01:35:17;;;;;;;21.77;4.53;;;;;;;8.57;60.23;100548.75;4819782;28;119556;-83
2022/04/10 01:37:45;;;;;;;20.65;4.05;;;;;;;8.53;60.66;100553.56;4821358;28;122495;-82
2022/04/10 01:40:16;;;;;;;19.33;4.13;;;;;;;8.44;60.74;100534.31;4805692;28;119678;-82
2022/04/10 01:42:41;;;;;;;14.90;3.60;;;;;;;8.49;59.87;100539.22;4839370;28;119654;-83
2022/04/10 01:45:08;;;;;;;17.65;3.90;;;;;;;8.47;59.90;100549.81;4801338;29;119868;-82
2022/04/10 01:47:34;;;;;;;22.95;3.75;;;;;;;8.50;59.92;100559.13;4821097;28;119933;-83
2022/04/10 01:50:00;;;;;;;19.35;3.95;;;;;;;8.48;60.33;100562.28;4821682;28;122936;-82
2022/04/10 01:52:26;;;;;;;15.18;3.70;;;;;;;8.43;60.09;100548.41;4805941;28;119470;-82
2022/04/10 01:54:53;;;;;;;18.77;4.22;;;;;;;8.49;60.08;100558.34;4836867;28;119775;-83
2022/04/10 01:57:18;;;;;;;19.55;4.18;;;;;;;8.46;60.22;100559.22;4819149;28;122952;-83
2022/04/10 01:59:44;;;;;;;20.45;4.15;;;;;;;8.40;60.29;100552.78;4804747;28;120041;-82
2022/04/10 02:02:10;;;;;;;21.00;4.53;;;;;;;8.44;60.56;100556.19;4821586;28;120448;-82
2022/04/10 02:04:35;;;;;;;24.73;4.93;;;;;;;8.41;60.74;100554.31;4805854;28;121040;-82
2022/04/10 02:07:03;;;;;;;21.60;4.05;;;;;;;8.44;61.66;100556.19;4804045;28;120219;-83
2022/04/10 02:09:29;;;;;;;18.80;4.75;;;;;;;8.40;61.06;100550.06;4819157;28;123133;-82
2022/04/10 02:11:56;;;;;;;25.40;4.45;;;;;;;8.47;60.99;100560.75;4813068;28;119692;-82
2022/04/10 02:14:22;;;;;;;24.40;5.30;;;;;;;8.46;61.04;100564.69;4824387;28;122168;-82
2022/04/10 02:16:47;;;;;;;23.45;4.93;;;;;;;8.34;61.01;100549.09;4798048;28;123811;-83
2022/04/10 02:19:13;;;;;;;19.27;4.60;;;;;;;8.41;61.63;100559.78;4818950;28;119900;-83
2022/04/10 02:21:41;;;;;;;27.35;4.93;;;;;;;8.42;61.25;100561.31;4819857;28;119885;-82
2022/04/10 02:24:07;;;;;;;27.00;5.57;;;;;;;8.39;61.93;100556.72;4826263;28;119869;-82
2022/04/10 02:26:34;;;;;;;26.25;5.55;;;;;;;8.42;61.63;100564.06;4820802;28;122530;-83
2022/04/10 02:29:00;;;;;;;23.52;4.85;;;;;;;8.42;61.26;100566.78;4803176;28;122745;-82
2022/04/10 02:31:26;;;;;;;24.40;4.05;;;;;;;8.40;61.00;100557.50;4800410;28;120009;-83
2022/04/10 02:33:52;;;;;;;16.88;3.92;;;;;;;8.46;60.99;100559.22;4802472;28;121519;-83
2022/04/10 02:36:19;;;;;;;24.55;5.03;;;;;;;8.48;61.26;100558.78;4799884;28;122984;-83
2022/04/10 02:38:45;;;;;;;26.13;5.05;;;;;;;8.43;61.62;100551.91;4812078;28;119683;-82
2022/04/10 02:41:10;;;;;;;25.00;4.43;;;;;;;8.43;60.94;100553.88;4804313;28;121646;-82
2022/04/10 02:43:39;;;;;;;20.17;5.22;;;;;;;8.43;60.67;100568.31;4814243;28;121004;-82
2022/04/10 02:46:08;;;;;;;29.60;5.45;;;;;;;8.39;60.70;100561.44;4837656;28;119637;-83
2022/04/10 02:48:39;;;;;;;21.23;5.38;;;;;;;8.43;60.91;100568.31;4809526;28;121637;-82
2022/04/10 02:51:08;;;;;;;21.50;4.60;;;;;;;8.42;60.88;100566.78;4824218;28;119991;-82
2022/04/10 02:53:34;;;;;;;22.98;4.65;;;;;;;8.44;60.33;100572.56;4805620;28;122125;-82
2022/04/10 02:56:00;;;;;;;25.55;4.50;;;;;;;8.36;60.39;100560.34;4812360;28;122609;-82
2022/04/10 02:58:46;;;;;;;23.45;4.90;;;;;;;8.28;60.19;100559.78;4836315;28;119855;-82
2022/04/10 03:01:33;;;;;;;20.48;4.45;;;;;;;8.34;60.80;100570.94;4822464;28;119514;-82
2022/04/10 03:04:17;;;;;;;24.58;5.32;;;;;;;8.34;61.30;100575.66;4822351;28;120503;-82
2022/04/10 03:07:02;;;;;;;25.83;4.57;;;;;;;8.37;61.26;100577.50;4836210;28;119374;-82
2022/04/10 03:09:47;;;;;;;25.48;4.93;;;;;;;8.38;61.68;100579.03;4826738;28;119449;-83
2022/04/10 03:12:32;;;;;;;24.95;4.65;;;;;;;8.36;61.44;100574.00;4842269;28;119397;-82
2022/04/10 03:15:16;;;;;;;19.10;4.43;;;;;;;8.38;61.80;100579.81;4839004;28;119540;-82
2022/04/10 03:18:02;;;;;;;21.27;4.97;;;;;;;8.36;61.66;100582.22;4837519;28;119671;-82
2022/04/10 03:20:46;;;;;;;26.52;5.10;;;;;;;8.40;61.73;100577.41;4827481;28;119728;-82
2022/04/10 03:23:31;;;;;;;27.40;4.80;;;;;;;8.40;62.46;100577.41;4828868;28;119689;-82
2022/04/10 03:26:15;;;;;;;24.25;4.90;;;;;;;8.41;61.71;100583.63;4843346;28;119773;-82
2022/04/10 03:28:59;;;;;;;24.50;5.20;;;;;;;8.35;61.88;100580.69;4823129;28;119779;-82
2022/04/10 03:31:43;;;;;;;29.60;5.55;;;;;;;8.36;61.39;100586.91;4839110;28;120712;-82
2022/04/10 03:34:27;;;;;;;23.52;4.63;;;;;;;8.34;61.12;100579.16;4829567;28;119626;-83
2022/04/10 03:37:12;;;;;;;22.27;4.88;;;;;;;8.34;61.39;100590.09;4821472;28;119533;-82
2022/04/10 03:39:57;;;;;;;30.73;5.68;;;;;;;8.34;61.82;100590.09;4838381;28;119656;-82
2022/04/10 03:42:41;;;;;;;29.48;5.13;;;;;;;8.35;61.47;100602.53;4838635;28;119505;-82
2022/04/10 03:45:27;;;;;;;24.50;5.15;;;;;;;8.33;61.36;100604.91;4851145;28;119970;-83
2022/04/10 03:48:12;;;;;;;25.33;5.03;;;;;;;8.33;61.46;100613.13;4842700;28;119722;-82
2022/04/10 03:50:59;;;;;;;22.08;4.53;;;;;;;8.26;61.60;100611.34;4819309;28;119469;-82
2022/04/10 03:53:44;;;;;;;25.40;4.82;;;;;;;8.28;61.31;100613.63;4837312;28;119469;-82
2022/04/10 03:56:29;;;;;;;25.38;4.93;;;;;;;8.26;61.06;100616.03;4832657;28;121192;-83
2022/04/10 03:59:14;;;;;;;21.75;5.18;;;;;;;8.24;62.08;100618.44;4829302;28;119716;-82
2022/04/10 04:01:58;;;;;;;27.05;5.25;;;;;;;8.32;62.11;100625.25;4836167;28;120706;-83
2022/04/10 04:04:43;;;;;;;20.58;5.05;;;;;;;8.30;61.55;100616.72;4824396;28;119724;-83
2022/04/10 04:07:27;;;;;;;23.33;5.63;;;;;;;8.35;61.73;100629.09;4837386;28;119446;-80
2022/04/10 04:10:12;;;;;;;24.83;4.72;;;;;;;8.47;61.44;100640.03;4831941;28;120260;-81
2022/04/10 04:12:56;;;;;;;25.70;4.68;;;;;;;8.46;60.90;100640.47;4848245;28;119674;-80
2022/04/10 04:15:40;;;;;;;22.13;4.90;;;;;;;8.43;61.12;100636.66;4853881;28;120765;-82
2022/04/10 04:18:24;;;;;;;24.17;5.05;;;;;;;8.47;61.14;100653.69;4825703;28;119985;-83
2022/04/10 04:21:09;;;;;;;30.10;5.22;;;;;;;8.48;60.94;100649.78;4827593;28;119768;-82
2022/04/10 04:23:59;;;;;;;23.80;4.70;;;;;;;8.50;61.08;100655.56;4840093;28;119747;-83
2022/04/10 04:26:43;;;;;;;23.08;5.03;;;;;;;8.54;61.69;100664.44;4836807;28;120793;-82
2022/04/10 04:29:35;;;;;;;23.90;4.97;;;;;;;8.51;60.84;100659.06;4838330;28;119795;-82
2022/04/10 04:32:19;;;;;;;25.42;4.70;;;;;;;8.55;61.89;100671.44;4837519;28;120206;-82
2022/04/10 04:35:04;;;;;;;22.65;4.53;;;;;;;8.59;62.61;100674.84;4836453;28;119520;-82
2022/04/10 04:37:49;;;;;;;18.92;4.28;;;;;;;8.63;61.25;100704.03;4821613;28;119702;-82
2022/04/10 04:40:39;;;;;;;17.98;3.88;;;;;;;8.45;60.51;100720.94;4819720;28;119695;-82
2022/04/10 04:43:23;;;;;;;11.68;3.13;;;;;;;8.25;59.82;100727.31;4819601;28;119387;-81
2022/04/10 04:46:09;;;;;;;10.90;2.95;;;;;;;7.99;59.91;100707.34;4835490;28;119450;-82
2022/04/10 04:48:53;;;;;;;11.40;2.70;;;;;;;7.82;60.85;100716.03;4839557;28;119958;-82
2022/04/10 04:51:37;;;;;;;13.95;3.10;;;;;;;7.74;61.42;100734.53;4819172;28;119912;-81
2022/04/10 04:54:23;;;;;;;11.27;3.47;;;;;;;7.61;61.31;100726.28;4846593;28;119760;-81
2022/04/10 04:57:07;;;;;;;9.57;2.83;;;;;;;7.61;61.64;100736.44;4827351;28;120251;-81
2022/04/10 04:59:58;;;;;;;10.23;3.05;;;;;;;7.58;62.22;100745.50;4825404;28;119431;-82
2022/04/10 05:02:43;;;;;;;11.65;3.38;;;;;;;7.57;62.02;100749.41;4834897;28;119753;-82
2022/04/10 05:05:28;;;;;;;13.68;3.10;;;;;;;7.57;62.12;100757.59;4825813;28;119893;-82
2022/04/10 05:08:14;;;;;;;12.15;2.90;;;;;;;7.56;61.93;100769.69;4822341;28;119541;-82
2022/04/10 05:10:59;;;;;;;15.60;3.17;;;;;;;7.51;62.88;100765.53;4825616;28;121435;-81
2022/04/10 05:13:44;;;;;;;18.13;4.10;;;;;;;7.47;62.33;100775.00;4837688;28;119848;-82
2022/04/10 05:16:28;;;;;;;13.40;3.35;;;;;;;7.27;62.60;100748.53;4832719;28;120249;-81
2022/04/10 05:19:14;;;;;;;14.55;3.50;;;;;;;7.32;62.75;100753.50;4837523;28;120082;-81
2022/04/10 05:21:59;;;;;;;18.23;3.60;;;;;;;7.36;63.93;100731.59;4822108;28;119881;-81
2022/04/10 05:24:44;;;;;;;15.20;3.72;;;;;;;7.43;63.17;100742.34;4841763;28;122253;-81
2022/04/10 05:27:28;;;;;;;17.85;4.05;;;;;;;7.49;62.76;100742.59;4823677;28;119695;-81
2022/04/10 05:30:13;;;;;;;13.68;3.38;;;;;;;7.47;62.71;100743.00;4822643;28;119348;-81
2022/04/10 05:32:58;;;;;;;12.57;3.65;;;;;;;7.51;62.88;100746.41;4829319;28;119823;-81
2022/04/10 05:35:42;;;;;;;16.90;4.07;;;;;;;7.54;63.57;100750.25;4836145;28;119523;-81
2022/04/10 05:38:27;;;;;;;18.02;4.10;;;;;;;7.55;63.82;100746.31;4835797;28;120527;-81
2022/04/10 05:41:13;;;;;;;19.88;5.13;;;;;;;7.57;63.88;100752.91;4834888;28;119812;-81
2022/04/10 05:44:00;;;;;;;21.58;6.18;;;;;;;7.65;63.73;100754.28;4844872;28;119453;-80
2022/04/10 05:46:44;;;;;;;21.40;6.38;;;;;;;7.74;64.10;100767.31;4835155;28;119702;-82
2022/04/10 05:49:30;;;;;;;22.65;7.25;;;;;;;7.68;64.55;100745.22;4826192;28;119402;-81
2022/04/10 05:52:14;;;;;;;17.50;5.15;;;;;;;7.77;64.29;100749.28;4824526;28;119416;-81
2022/04/10 05:54:59;;;;;;;22.55;4.28;;;;;;;7.93;64.57;100766.44;4839219;28;119622;-82
2022/04/10 05:57:45;;;;;;;17.80;4.38;;;;;;;7.98;64.30;100771.38;4837104;28;119390;-81
2022/04/10 06:00:30;;;;;;;18.63;4.50;;;;;;;8.06;63.90;100780.16;4837977;28;120717;-82
2022/04/10 06:03:25;;;;;;;18.25;5.03;;;;;;;8.06;64.87;100779.41;4833453;28;119450;-81
2022/04/10 06:06:11;;;;;;;22.25;5.20;;;;;;;8.12;64.66;100780.41;4826192;28;120003;-81
2022/04/10 06:09:01;;;;;;;21.77;5.18;;;;;;;8.16;64.38;100789.25;4831321;28;120121;-81
2022/04/10 06:11:48;;;;;;;20.15;4.65;;;;;;;8.29;63.94;100796.31;4831766;28;119654;-82
2022/04/10 06:14:33;;;;;;;17.92;4.30;;;;;;;8.25;63.68;100795.63;4826159;28;119553;-80
2022/04/10 06:16:59;;;;;;;20.77;4.13;;;;;;;8.39;64.10;100802.72;4803039;29;121180;-81
2022/04/10 06:19:27;;;;;;;18.80;4.15;;;;;;;8.41;64.01;100803.06;4818730;28;119768;-82
2022/04/10 06:21:54;;;;;;;21.80;4.85;;;;;;;8.36;63.86;100795.38;4821029;28;121462;-81
2022/04/10 06:24:21;;;;;;;23.08;4.53;;;;;;;8.54;63.40;100817.56;4811617;28;122740;-81
2022/04/10 06:26:51;;;;;;;17.58;4.72;;;;;;;8.53;63.54;100807.81;4834477;28;119650;-81
2022/04/10 06:29:18;;;;;;;19.35;3.95;;;;;;;8.57;63.28;100822.16;4802361;28;122735;-81
2022/04/10 06:31:54;;;;;;;15.80;3.97;;;;;;;8.62;62.82;100820.84;4822170;28;120112;-81
2022/04/10 06:34:22;;;;;;;15.98;3.67;;;;;;;8.65;62.33;100811.00;4836929;28;119552;-81
2022/04/10 06:36:48;;;;;;;12.88;3.70;;;;;;;8.75;62.36;100820.88;4807002;28;121215;-81
2022/04/10 06:39:17;;;;;;;14.05;3.28;;;;;;;8.81;62.68;100830.84;4820994;28;119858;-81
2022/04/10 06:41:43;;;;;;;11.77;3.00;;;;;;;8.87;61.66;100831.09;4811114;28;121580;-81
2022/04/10 06:44:18;;;;;;;9.88;3.17;;;;;;;8.96;62.08;100827.69;4821793;28;121256;-81
2022/04/10 06:46:46;;;;;;;16.85;4.00;;;;;;;9.04;62.48;100831.78;4820021;28;121870;-80
2022/04/10 06:49:32;;;;;;;17.67;3.55;;;;;;;9.10;61.61;100828.06;4840604;28;119776;-81
2022/04/10 06:52:00;;;;;;;13.57;3.63;;;;;;;9.23;61.61;100828.84;4822985;28;120019;-79
2022/04/10 06:54:32;;;;;;;14.02;3.50;;;;;;;9.31;61.78;100837.59;4833558;28;119706;-80
2022/04/10 06:56:57;;;;;;;14.02;3.47;;;;;;;9.34;62.10;100830.47;4846956;28;119801;-80
2022/04/10 06:59:23;;;;;;;15.25;3.83;;;;;;;9.39;61.33;100838.16;4839620;28;119703;-80
2022/04/10 07:01:50;;;;;;;16.95;3.67;;;;;;;9.40;61.29;100824.00;4837367;28;119932;-81
2022/04/10 07:04:15;;;;;;;16.70;3.92;;;;;;;9.42;61.75;100829.06;4839084;28;121308;-80
2022/04/10 07:06:46;;;;;;;14.95;3.78;;;;;;;9.44;61.25;100838.34;4812182;28;120615;-79
2022/04/10 07:09:21;;;;;;;19.33;4.20;;;;;;;9.46;60.89;100835.19;4821461;28;123134;-80
2022/04/10 07:11:47;;;;;;;17.33;3.47;;;;;;;9.46;60.54;100833.22;4821738;28;120130;-80
2022/04/10 07:14:31;;;;;;;15.52;3.60;;;;;;;9.50;61.31;100841.34;4837207;28;119392;-80
2022/04/10 07:16:57;;;;;;;14.10;3.70;;;;;;;9.50;60.55;100833.88;4855881;28;120347;-80
2022/04/10 07:19:23;;;;;;;18.13;4.13;;;;;;;9.53;61.13;100834.97;4823189;28;119532;-80
2022/04/10 07:24:34;;;;;;;18.00;3.90;;;;;;;9.64;60.79;100840.09;4821011;28;123308;-80
2022/04/10 07:27:00;;;;;;;21.63;4.47;;;;;;;9.76;60.47;100853.03;4804895;28;120032;-80
2022/04/10 07:29:37;;;;;;;21.00;4.28;;;;;;;9.83;59.79;100858.28;4841515;28;119521;-80
2022/04/10 07:32:05;;;;;;;17.77;4.10;;;;;;;9.94;60.01;100847.75;4838680;28;119550;-81
2022/04/10 07:34:34;;;;;;;22.38;4.53;;;;;;;10.03;59.95;100847.06;4838892;28;120787;-80
2022/04/10 07:37:11;;;;;;;22.65;4.35;;;;;;;10.16;59.07;100847.78;4815443;28;122979;-80
2022/04/10 07:39:49;;;;;;;18.50;4.18;;;;;;;10.18;58.11;100853.63;4808361;28;120038;-80
2022/04/10 07:42:22;;;;;;;21.77;4.38;;;;;;;10.27;56.55;100856.47;4819221;28;122242;-80
2022/04/10 07:44:47;;;;;;;24.92;4.53;;;;;;;10.38;57.02;100862.34;4806820;28;121214;-80
2022/04/10 07:47:26;;;;;;;20.58;4.65;;;;;;;10.50;57.28;100857.25;4838639;28;119652;-80
2022/04/10 07:49:53;;;;;;;22.23;4.60;;;;;;;10.58;55.55;100885.97;4823461;28;121760;-82
2022/04/10 07:52:22;;;;;;;14.48;3.90;;;;;;;10.46;54.35;100898.53;4823573;29;123034;-81
2022/04/10 07:55:05;;;;;;;16.33;3.60;;;;;;;10.19;55.05;100890.78;4809713;28;121928;-80
2022/04/10 07:57:34;;;;;;;16.83;4.07;;;;;;;10.00;55.50;100895.31;4821695;28;123745;-81
2022/04/10 08:00:02;;;;;;;16.77;3.72;;;;;;;9.84;57.01;100893.47;4791242;28;119600;-81
2022/04/10 08:02:49;;;;;;;18.45;3.88;;;;;;;9.82;57.16;100903.31;4807901;28;121668;-80
2022/04/10 08:05:23;;;;;;;17.48;4.38;;;;;;;9.84;58.13;100893.47;4842288;28;120756;-81
2022/04/10 08:08:02;;;;;;;17.80;4.00;;;;;;;9.89;57.93;100894.88;4824206;28;121265;-81
2022/04/10 08:10:29;;;;;;;17.85;3.78;;;;;;;9.98;58.36;100897.72;4830500;28;120513;-81
2022/04/10 08:12:55;;;;;;;15.85;3.60;;;;;;;10.01;58.30;100901.56;4808630;28;123243;-82
2022/04/10 08:15:20;;;;;;;14.82;3.97;;;;;;;10.08;57.93;100896.59;4824902;28;119907;-81
2022/04/10 08:17:46;;;;;;;16.00;4.28;;;;;;;10.11;56.12;100897.69;4814957;28;120332;-81
2022/04/10 08:20:12;;;;;;;16.92;4.05;;;;;;;10.16;56.64;100906.13;4803623;28;119820;-82
2022/04/10 08:22:39;;;;;;;16.38;3.75;;;;;;;10.19;55.08;100898.25;4833895;28;121941;-81
2022/04/10 08:25:11;;;;;;;16.95;3.15;;;;;;;10.26;55.85;100904.28;4802418;28;122681;-81
2022/04/10 08:27:37;;;;;;;15.68;4.15;;;;;;;10.35;56.05;100909.84;4832680;28;121251;-79
2022/04/10 08:30:04;;;;;;;14.13;3.65;;;;;;;10.35;55.14;100906.34;4842212;28;122082;-80
2022/04/10 08:32:37;;;;;;;16.13;3.50;;;;;;;10.45;55.34;100903.25;4817503;28;120240;-79
2022/04/10 08:35:04;;;;;;;13.95;3.25;;;;;;;10.45;54.66;100894.25;4820149;28;119515;-80
2022/04/10 08:37:29;;;;;;;16.60;3.85;;;;;;;10.55;55.01;100895.09;4836916;28;119848;-80
2022/04/10 08:39:55;;;;;;;17.23;3.08;;;;;;;10.64;54.96;100909.63;4834405;28;119774;-80
2022/04/10 08:42:20;;;;;;;16.52;3.20;;;;;;;10.69;55.26;100895.38;4832802;28;121977;-80
2022/04/10 08:44:47;;;;;;;13.80;3.45;;;;;;;10.83;55.90;100916.03;4844155;28;120230;-80
2022/04/10 08:47:15;;;;;;;13.32;3.30;;;;;;;10.90;53.52;100912.28;4833578;28;120843;-81
2022/04/10 08:49:41;;;;;;;14.40;3.00;;;;;;;10.88;53.69;100896.25;4803622;28;122230;-81
2022/04/10 08:52:07;;;;;;;11.75;3.05;;;;;;;11.00;53.63;100906.41;4816759;28;121406;-80
2022/04/10 08:54:34;;;;;;;11.73;2.88;;;;;;;11.16;54.04;100910.19;4818235;28;120052;-80
2022/04/10 08:57:01;;;;;;;12.73;3.00;;;;;;;11.32;53.06;100923.69;4822745;28;121284;-81
2022/04/10 08:59:27;;;;;;;14.85;3.17;;;;;;;11.47;52.99;100923.91;4817812;28;119790;-80
2022/04/10 09:01:56;;;;;;;14.63;3.17;;;;;;;11.50;50.78;100932.03;4835205;28;120208;-80
2022/04/10 09:04:23;;;;;;;14.50;2.88;;;;;;;11.42;50.34;100928.03;4833855;28;119723;-80
2022/04/10 09:06:58;;;;;;;18.50;4.18;;;;;;;11.33;49.76;100927.94;4827471;28;120186;-80
2022/04/10 09:09:24;;;;;;;12.23;2.67;;;;;;;11.32;47.69;100929.94;4813738;28;122400;-80
2022/04/10 09:11:54;;;;;;;13.93;3.05;;;;;;;11.33;48.24;100930.69;4813278;28;119818;-80
2022/04/10 09:14:23;;;;;;;13.45;3.28;;;;;;;11.40;49.71;100924.19;4799589;28;119441;-79
2022/04/10 09:17:11;;;;;;;16.52;3.33;;;;;;;11.54;51.63;100932.66;4799074;28;122275;-79
2022/04/10 09:19:43;;;;;;;13.95;3.08;;;;;;;11.75;51.50;100941.28;4836561;28;122843;-82
2022/04/10 09:22:28;;;;;;;14.32;3.80;;;;;;;11.81;48.84;100947.75;4833103;28;120217;-80
2022/04/10 09:25:07;;;;;;;13.50;3.80;;;;;;;11.75;48.87;100946.78;4818193;28;121286;-81
2022/04/10 09:27:38;;;;;;;17.45;3.50;;;;;;;11.53;49.87;100950.34;4801565;28;119709;-80
2022/04/10 09:30:06;;;;;;;19.33;4.03;;;;;;;11.43;49.89;100968.00;4818420;28;121923;-80
2022/04/10 09:32:40;;;;;;;18.98;3.70;;;;;;;11.32;50.25;100946.41;4818307;28;122558;-81
2022/04/10 09:35:07;;;;;;;16.42;3.50;;;;;;;11.46;51.51;100960.84;4817940;28;119503;-80
2022/04/10 09:37:47;;;;;;;19.30;3.97;;;;;;;11.59;50.19;100954.06;4816744;28;122578;-80
2022/04/10 09:40:30;;;;;;;18.80;4.50;;;;;;;11.64;50.09;100964.47;4848088;28;119940;-79
2022/04/10 09:43:19;;;;;;;16.15;3.20;;;;;;;11.62;50.50;100975.13;4853046;28;119442;-80
2022/04/10 09:45:44;;;;;;;14.88;3.35;;;;;;;11.53;50.03;100988.03;4833550;28;120381;-81
2022/04/10 09:48:27;;;;;;;20.63;4.07;;;;;;;11.40;49.92;101001.09;4833734;28;119585;-81
2022/04/10 09:50:57;;;;;;;13.20;3.60;;;;;;;11.24;50.96;100988.31;4814797;28;121598;-83
2022/04/10 09:53:23;;;;;;;18.08;4.47;;;;;;;11.11;51.41;100982.09;4816592;28;120638;-80
2022/04/10 09:56:10;;;;;;;14.77;3.67;;;;;;;11.12;51.55;100984.44;4816907;28;119870;-81
2022/04/10 09:58:36;;;;;;;14.00;3.30;;;;;;;11.14;52.20;100967.50;4800997;28;121704;-80
2022/04/10 10:01:04;;;;;;;14.13;3.60;;;;;;;11.21;52.06;100978.22;4802341;28;123572;-81
2022/04/10 10:03:31;;;;;;;12.25;3.17;;;;;;;11.32;51.88;100984.09;4818320;28;120025;-80
2022/04/10 10:05:58;;;;;;;18.67;3.72;;;;;;;11.51;53.26;100982.22;4805956;28;119995;-80
2022/04/10 10:08:25;;;;;;;18.17;3.50;;;;;;;11.67;51.83;100980.03;4851406;28;120077;-80
2022/04/10 10:10:57;;;;;;;14.98;3.45;;;;;;;11.72;51.83;100984.19;4818794;28;120134;-83
2022/04/10 10:13:26;;;;;;;17.33;3.38;;;;;;;11.73;50.83;100995.94;4849521;28;120435;-80
2022/04/10 10:15:55;;;;;;;17.45;3.72;;;;;;;11.74;49.55;100994.72;4819618;28;119885;-80
2022/04/10 10:18:23;;;;;;;18.63;3.67;;;;;;;11.76;49.26;101001.28;4804394;28;121642;-81
2022/04/10 10:20:50;;;;;;;14.68;3.42;;;;;;;11.77;48.59;101002.06;4820566;28;120417;-81
2022/04/10 10:23:19;;;;;;;14.05;3.25;;;;;;;11.68;47.70;101005.53;4824608;28;119489;-81
2022/04/10 10:25:45;;;;;;;15.15;3.28;;;;;;;11.57;48.28;101005.16;4839562;28;119590;-81
2022/04/10 10:28:22;;;;;;;12.52;2.80;;;;;;;11.52;48.84;101006.50;4843417;28;123242;-81
2022/04/10 10:30:52;;;;;;;17.20;3.17;;;;;;;11.59;50.13;100989.78;4823395;28;122324;-82
2022/04/10 10:33:22;;;;;;;18.67;4.10;;;;;;;11.72;49.73;101016.41;4838762;28;120361;-81
2022/04/10 10:35:55;;;;;;;10.98;2.78;;;;;;;11.63;47.60;101041.84;4840193;28;120189;-82
2022/04/10 10:38:31;;;;;;;14.45;3.10;;;;;;;11.34;49.70;101066.81;4821302;28;122551;-81
2022/04/10 10:41:12;;;;;;;15.30;3.53;;;;;;;10.96;49.62;101054.00;4820004;28;121326;-82
2022/04/10 10:43:40;;;;;;;13.43;3.38;;;;;;;10.62;51.19;101045.72;4818258;28;119975;-80
2022/04/10 10:46:32;;;;;;;15.10;3.22;;;;;;;10.49;52.62;101045.75;4806334;28;121938;-80
2022/04/10 10:49:20;;;;;;;13.52;3.40;;;;;;;10.36;53.04;101047.72;4801682;28;122771;-79
2022/04/10 10:51:46;;;;;;;17.50;3.45;;;;;;;10.25;52.98;101042.56;4819436;28;121525;-81
2022/04/10 10:54:34;;;;;;;16.05;3.30;;;;;;;10.24;54.14;101034.78;4829345;28;119935;-80
2022/04/10 10:57:37;;;;;;;15.18;3.60;;;;;;;10.31;55.38;101029.06;4814938;28;120862;-82
2022/04/10 11:00:18;;;;;;;14.88;3.30;;;;;;;10.52;56.72;101028.41;4814832;28;121580;-80
2022/04/10 11:02:54;;;;;;;12.70;3.33;;;;;;;10.74;55.55;101023.75;4831536;28;120448;-79
2022/04/10 11:05:39;;;;;;;16.40;3.10;;;;;;;10.99;52.85;101022.13;4815603;28;121082;-79
2022/04/10 11:08:09;;;;;;;15.82;3.72;;;;;;;11.19;52.68;101036.34;4814842;28;122325;-81
2022/04/10 11:10:37;;;;;;;17.08;3.30;;;;;;;11.40;51.24;101009.34;4799198;28;123967;-80
2022/04/10 11:13:05;;;;;;;14.95;3.42;;;;;;;11.46;48.64;101021.28;4834078;28;120356;-82
2022/04/10 11:15:47;;;;;;;10.43;3.55;;;;;;;11.62;49.68;101032.06;4814347;28;122960;-82
2022/04/10 11:18:35;;;;;;;14.68;3.55;;;;;;;11.65;49.22;101048.44;4815424;28;121487;-81
2022/04/10 11:21:28;;;;;;;12.82;2.65;;;;;;;11.63;49.73;101026.13;4815847;28;120350;-79
2022/04/10 11:23:57;;;;;;;13.32;2.10;;;;;;;11.58;50.51;101095.38;4807719;28;123031;-83
2022/04/10 11:26:27;;;;;;;8.70;1.65;;;;;;;11.40;51.60;101095.25;4815145;28;119766;-79
2022/04/10 11:29:01;;;;;;;6.55;1.77;;;;;;;11.20;51.07;101092.78;4832937;28;119429;-80
2022/04/10 11:31:48;;;;;;;7.97;2.13;;;;;;;10.98;52.64;101092.75;4800319;28;120523;-80
2022/04/10 11:34:19;;;;;;;7.90;1.95;;;;;;;10.90;53.13;101088.69;4786175;28;120129;-79
2022/04/10 11:36:48;;;;;;;9.50;2.78;;;;;;;10.90;54.83;101082.44;4836425;28;119757;-80
2022/04/10 11:39:16;;;;;;;12.20;3.17;;;;;;;10.85;54.59;101091.22;4800396;28;119552;-80
2022/04/10 11:41:42;;;;;;;12.07;3.00;;;;;;;10.69;54.48;101076.44;4783327;28;120382;-81
2022/04/10 11:44:09;;;;;;;16.55;3.00;;;;;;;10.75;55.13;101080.16;4812134;28;123647;-81
2022/04/10 11:46:35;;;;;;;14.68;3.33;;;;;;;10.72;55.76;101077.53;4825191;28;119844;-82
2022/04/10 11:49:03;;;;;;;14.40;3.30;;;;;;;10.90;55.54;101085.97;4814969;28;122211;-81
2022/04/10 11:51:29;;;;;;;14.80;2.88;;;;;;;11.02;55.94;101087.13;4830810;28;120383;-79